ADDS TAF Data INFO
IDs: Format: Raw Decoded Include METARs

Data at: 0320 UTC 22 Nov 2017

KCNY 220253Z AUTO 00000KT 10SM CLR 04/M12 A3036 RMK AO2 SLP302 T00391117 53016

KCNY 212340Z 2200/2224 00000KT P6SM FEW150 SCT250